sensor_id;sensor_type;location;lat;lon;timestamp;temperature;humidity
34135;DHT22;20410;55.578;12.968;2023-03-01T00:01:52;1.00;1.00
34135;DHT22;20410;55.578;12.968;2023-03-01T00:04:18;1.00;1.00
34135;DHT22;20410;55.578;12.968;2023-03-01T00:06:43;1.00;1.00
34135;DHT22;20410;55.578;12.968;2023-03-01T00:09:13;1.00;1.00
34135;DHT22;20410;55.578;12.968;2023-03-01T00:11:39;1.00;1.00
34135;DHT22;20410;55.578;12.968;2023-03-01T00:14:05;1.00;1.00
34135;DHT22;20410;55.578;12.968;2023-03-01T00:16:34;1.00;1.00
34135;DHT22;20410;55.578;12.968;2023-03-01T00:19:00;1.00;1.00
34135;DHT22;20410;55.578;12.968;2023-03-01T00:21:26;0.90;1.00
34135;DHT22;20410;55.578;12.968;2023-03-01T00:23:53;0.90;1.00
34135;DHT22;20410;55.578;12.968;2023-03-01T00:26:20;0.90;1.00
34135;DHT22;20410;55.578;12.968;2023-03-01T00:28:46;0.90;1.00
34135;DHT22;20410;55.578;12.968;2023-03-01T00:31:18;0.90;1.00
34135;DHT22;20410;55.578;12.968;2023-03-01T00:33:44;0.90;1.00
34135;DHT22;20410;55.578;12.968;2023-03-01T00:36:12;0.90;1.00
34135;DHT22;20410;55.578;12.968;2023-03-01T00:38:41;1.00;1.00
34135;DHT22;20410;55.578;12.968;2023-03-01T00:41:08;1.00;1.00
34135;DHT22;20410;55.578;12.968;2023-03-01T00:43:34;0.90;1.00
34135;DHT22;20410;55.578;12.968;2023-03-01T00:46:13;1.00;1.00
34135;DHT22;20410;55.578;12.968;2023-03-01T00:48:39;1.00;1.00
34135;DHT22;20410;55.578;12.968;2023-03-01T00:51:09;0.90;1.00
34135;DHT22;20410;55.578;12.968;2023-03-01T00:53:35;0.90;1.00
34135;DHT22;20410;55.578;12.968;2023-03-01T00:56:02;0.90;1.00
34135;DHT22;20410;55.578;12.968;2023-03-01T00:58:28;0.90;1.00
34135;DHT22;20410;55.578;12.968;2023-03-01T01:00:53;0.80;1.00
34135;DHT22;20410;55.578;12.968;2023-03-01T01:03:19;0.80;1.00
34135;DHT22;20410;55.578;12.968;2023-03-01T01:05:45;0.80;1.00
34135;DHT22;20410;55.578;12.968;2023-03-01T01:08:11;0.80;1.00
34135;DHT22;20410;55.578;12.968;2023-03-01T01:10:36;0.80;1.00
34135;DHT22;20410;55.578;12.968;2023-03-01T01:13:02;0.90;1.00
34135;DHT22;20410;55.578;12.968;2023-03-01T01:15:28;0.90;1.00
34135;DHT22;20410;55.578;12.968;2023-03-01T01:17:54;0.90;1.00
34135;DHT22;20410;55.578;12.968;2023-03-01T01:20:20;0.90;1.00
34135;DHT22;20410;55.578;12.968;2023-03-01T01:22:46;0.90;1.00
34135;DHT22;20410;55.578;12.968;2023-03-01T01:25:11;0.90;1.00
34135;DHT22;20410;55.578;12.968;2023-03-01T01:27:37;1.00;1.00
34135;DHT22;20410;55.578;12.968;2023-03-01T01:30:03;1.00;1.00
34135;DHT22;20410;55.578;12.968;2023-03-01T01:32:29;0.90;1.00
34135;DHT22;20410;55.578;12.968;2023-03-01T01:34:55;0.90;1.00
34135;DHT22;20410;55.578;12.968;2023-03-01T01:37:21;0.90;1.00
34135;DHT22;20410;55.578;12.968;2023-03-01T01:39:46;0.90;1.00
34135;DHT22;20410;55.578;12.968;2023-03-01T01:42:16;0.90;1.00
34135;DHT22;20410;55.578;12.968;2023-03-01T01:44:45;1.00;1.00
34135;DHT22;20410;55.578;12.968;2023-03-01T01:47:17;1.00;1.00
34135;DHT22;20410;55.578;12.968;2023-03-01T01:49:50;1.10;1.00
34135;DHT22;20410;55.578;12.968;2023-03-01T01:52:17;1.00;1.00
34135;DHT22;20410;55.578;12.968;2023-03-01T01:55:06;1.10;1.00
34135;DHT22;20410;55.578;12.968;2023-03-01T01:57:40;1.10;1.00
34135;DHT22;20410;55.578;12.968;2023-03-01T02:00:20;1.10;1.00
34135;DHT22;20410;55.578;12.968;2023-03-01T02:02:48;1.10;1.00
34135;DHT22;20410;55.578;12.968;2023-03-01T02:05:34;1.00;1.00
34135;DHT22;20410;55.578;12.968;2023-03-01T02:08:02;1.00;1.00
34135;DHT22;20410;55.578;12.968;2023-03-01T02:10:29;1.00;1.00
34135;DHT22;20410;55.578;12.968;2023-03-01T02:12:57;0.90;1.00
34135;DHT22;20410;55.578;12.968;2023-03-01T02:15:23;0.90;1.00
34135;DHT22;20410;55.578;12.968;2023-03-01T02:17:49;0.90;1.00
34135;DHT22;20410;55.578;12.968;2023-03-01T02:23:02;1.00;1.00
34135;DHT22;20410;55.578;12.968;2023-03-01T02:25:36;1.00;1.00
34135;DHT22;20410;55.578;12.968;2023-03-01T02:28:19;1.10;1.00
34135;DHT22;20410;55.578;12.968;2023-03-01T02:30:47;1.10;1.00
34135;DHT22;20410;55.578;12.968;2023-03-01T02:33:33;1.20;1.00
34135;DHT22;20410;55.578;12.968;2023-03-01T02:36:03;1.30;1.00
34135;DHT22;20410;55.578;12.968;2023-03-01T02:38:31;1.30;1.00
34135;DHT22;20410;55.578;12.968;2023-03-01T02:40:57;1.30;1.00
34135;DHT22;20410;55.578;12.968;2023-03-01T02:43:29;1.40;1.00
34135;DHT22;20410;55.578;12.968;2023-03-01T02:45:59;1.40;1.00
34135;DHT22;20410;55.578;12.968;2023-03-01T02:48:43;1.40;1.00
34135;DHT22;20410;55.578;12.968;2023-03-01T02:54:26;1.30;1.00
34135;DHT22;20410;55.578;12.968;2023-03-01T02:56:53;1.10;1.00
34135;DHT22;20410;55.578;12.968;2023-03-01T02:59:21;1.10;1.00
34135;DHT22;20410;55.578;12.968;2023-03-01T03:01:48;1.10;1.00
34135;DHT22;20410;55.578;12.968;2023-03-01T03:04:18;1.10;1.00
34135;DHT22;20410;55.578;12.968;2023-03-01T03:06:45;1.10;1.00
34135;DHT22;20410;55.578;12.968;2023-03-01T03:09:11;1.10;1.00
34135;DHT22;20410;55.578;12.968;2023-03-01T03:11:37;1.00;1.00
34135;DHT22;20410;55.578;12.968;2023-03-01T03:14:04;1.00;1.00
34135;DHT22;20410;55.578;12.968;2023-03-01T03:16:30;1.00;1.00
34135;DHT22;20410;55.578;12.968;2023-03-01T03:18:56;1.00;1.00
34135;DHT22;20410;55.578;12.968;2023-03-01T03:21:32;1.00;1.00
34135;DHT22;20410;55.578;12.968;2023-03-01T03:23:58;1.00;1.00
34135;DHT22;20410;55.578;12.968;2023-03-01T03:26:23;1.00;1.00
34135;DHT22;20410;55.578;12.968;2023-03-01T03:28:49;1.00;1.00
34135;DHT22;20410;55.578;12.968;2023-03-01T03:31:15;1.00;1.00
34135;DHT22;20410;55.578;12.968;2023-03-01T03:33:40;1.00;1.00
34135;DHT22;20410;55.578;12.968;2023-03-01T03:36:06;1.00;1.00
34135;DHT22;20410;55.578;12.968;2023-03-01T03:38:32;1.10;1.00
34135;DHT22;20410;55.578;12.968;2023-03-01T03:41:06;1.10;1.00
34135;DHT22;20410;55.578;12.968;2023-03-01T03:43:34;1.10;1.00
34135;DHT22;20410;55.578;12.968;2023-03-01T03:46:00;1.10;1.00
34135;DHT22;20410;55.578;12.968;2023-03-01T03:48:26;1.00;1.00
34135;DHT22;20410;55.578;12.968;2023-03-01T03:50:54;1.00;1.00
34135;DHT22;20410;55.578;12.968;2023-03-01T03:53:21;0.90;1.00
34135;DHT22;20410;55.578;12.968;2023-03-01T03:55:47;0.90;1.00
34135;DHT22;20410;55.578;12.968;2023-03-01T03:58:15;0.80;1.00
34135;DHT22;20410;55.578;12.968;2023-03-01T04:00:43;0.80;1.00
34135;DHT22;20410;55.578;12.968;2023-03-01T04:03:10;0.80;1.00
34135;DHT22;20410;55.578;12.968;2023-03-01T04:05:37;0.80;1.00
34135;DHT22;20410;55.578;12.968;2023-03-01T04:08:03;0.70;1.00
34135;DHT22;20410;55.578;12.968;2023-03-01T04:10:35;0.70;1.00
34135;DHT22;20410;55.578;12.968;2023-03-01T04:13:02;0.70;1.00
34135;DHT22;20410;55.578;12.968;2023-03-01T04:15:28;0.70;1.00
34135;DHT22;20410;55.578;12.968;2023-03-01T04:17:54;0.60;1.00
34135;DHT22;20410;55.578;12.968;2023-03-01T04:20:26;0.60;1.00
34135;DHT22;20410;55.578;12.968;2023-03-01T04:25:23;0.50;1.00
34135;DHT22;20410;55.578;12.968;2023-03-01T04:27:49;0.50;1.00
34135;DHT22;20410;55.578;12.968;2023-03-01T04:30:15;0.40;1.00
34135;DHT22;20410;55.578;12.968;2023-03-01T04:32:41;0.40;1.00
34135;DHT22;20410;55.578;12.968;2023-03-01T04:35:07;0.50;1.00
34135;DHT22;20410;55.578;12.968;2023-03-01T04:37:32;0.40;1.00
34135;DHT22;20410;55.578;12.968;2023-03-01T04:39:58;0.40;1.00
34135;DHT22;20410;55.578;12.968;2023-03-01T04:42:23;0.50;1.00
34135;DHT22;20410;55.578;12.968;2023-03-01T04:44:49;0.40;1.00
34135;DHT22;20410;55.578;12.968;2023-03-01T04:47:16;0.40;1.00
34135;DHT22;20410;55.578;12.968;2023-03-01T04:49:42;0.40;1.00
34135;DHT22;20410;55.578;12.968;2023-03-01T04:52:08;0.40;1.00
34135;DHT22;20410;55.578;12.968;2023-03-01T04:54:35;0.40;1.00
34135;DHT22;20410;55.578;12.968;2023-03-01T04:57:02;0.30;1.00
34135;DHT22;20410;55.578;12.968;2023-03-01T04:59:28;0.20;1.00
34135;DHT22;20410;55.578;12.968;2023-03-01T05:01:55;0.20;1.00
34135;DHT22;20410;55.578;12.968;2023-03-01T05:04:22;0.10;1.00
34135;DHT22;20410;55.578;12.968;2023-03-01T05:06:48;0.10;1.00
34135;DHT22;20410;55.578;12.968;2023-03-01T05:09:13;0.10;1.00
34135;DHT22;20410;55.578;12.968;2023-03-01T05:11:39;0.10;1.00
34135;DHT22;20410;55.578;12.968;2023-03-01T05:14:05;0.30;1.00
34135;DHT22;20410;55.578;12.968;2023-03-01T05:16:31;0.20;1.00
34135;DHT22;20410;55.578;12.968;2023-03-01T05:18:58;0.20;1.00
34135;DHT22;20410;55.578;12.968;2023-03-01T05:21:24;0.10;1.00
34135;DHT22;20410;55.578;12.968;2023-03-01T05:23:50;0.00;1.00
34135;DHT22;20410;55.578;12.968;2023-03-01T05:26:18;0.00;1.00
34135;DHT22;20410;55.578;12.968;2023-03-01T05:28:44;0.10;1.00
34135;DHT22;20410;55.578;12.968;2023-03-01T05:31:10;0.20;1.00
34135;DHT22;20410;55.578;12.968;2023-03-01T05:33:39;0.10;1.00
34135;DHT22;20410;55.578;12.968;2023-03-01T05:36:08;0.10;1.00
34135;DHT22;20410;55.578;12.968;2023-03-01T05:38:35;0.10;1.00
34135;DHT22;20410;55.578;12.968;2023-03-01T05:41:01;0.20;1.00
34135;DHT22;20410;55.578;12.968;2023-03-01T05:43:30;0.20;1.00
34135;DHT22;20410;55.578;12.968;2023-03-01T05:45:57;0.30;1.00
34135;DHT22;20410;55.578;12.968;2023-03-01T05:48:23;0.30;1.00
34135;DHT22;20410;55.578;12.968;2023-03-01T05:50:49;0.30;1.00
34135;DHT22;20410;55.578;12.968;2023-03-01T05:53:19;0.20;1.00
34135;DHT22;20410;55.578;12.968;2023-03-01T05:55:48;0.30;1.00
34135;DHT22;20410;55.578;12.968;2023-03-01T05:58:17;0.30;1.00
34135;DHT22;20410;55.578;12.968;2023-03-01T06:00:45;0.30;1.00
34135;DHT22;20410;55.578;12.968;2023-03-01T06:03:12;0.30;1.00
34135;DHT22;20410;55.578;12.968;2023-03-01T06:05:39;0.30;1.00
34135;DHT22;20410;55.578;12.968;2023-03-01T06:08:05;0.40;1.00
34135;DHT22;20410;55.578;12.968;2023-03-01T06:10:30;0.50;1.00
34135;DHT22;20410;55.578;12.968;2023-03-01T06:12:57;0.50;1.00
34135;DHT22;20410;55.578;12.968;2023-03-01T06:15:23;0.50;1.00
34135;DHT22;20410;55.578;12.968;2023-03-01T06:17:49;0.50;1.00
34135;DHT22;20410;55.578;12.968;2023-03-01T06:20:20;0.60;1.00
34135;DHT22;20410;55.578;12.968;2023-03-01T06:22:47;0.60;1.00
34135;DHT22;20410;55.578;12.968;2023-03-01T06:25:16;0.80;1.00
34135;DHT22;20410;55.578;12.968;2023-03-01T06:27:42;0.80;1.00
34135;DHT22;20410;55.578;12.968;2023-03-01T06:30:10;0.90;1.00
34135;DHT22;20410;55.578;12.968;2023-03-01T06:32:37;0.90;1.00
34135;DHT22;20410;55.578;12.968;2023-03-01T06:35:03;1.00;1.00
34135;DHT22;20410;55.578;12.968;2023-03-01T06:37:29;1.10;1.00
34135;DHT22;20410;55.578;12.968;2023-03-01T06:39:55;1.10;1.00
34135;DHT22;20410;55.578;12.968;2023-03-01T06:42:20;1.10;1.00
34135;DHT22;20410;55.578;12.968;2023-03-01T06:44:46;1.10;1.00
34135;DHT22;20410;55.578;12.968;2023-03-01T06:47:12;1.20;1.00
34135;DHT22;20410;55.578;12.968;2023-03-01T06:49:37;1.30;1.00
34135;DHT22;20410;55.578;12.968;2023-03-01T06:52:03;1.40;1.00
34135;DHT22;20410;55.578;12.968;2023-03-01T06:54:29;1.50;1.00
34135;DHT22;20410;55.578;12.968;2023-03-01T06:56:54;1.60;1.00
34135;DHT22;20410;55.578;12.968;2023-03-01T06:59:20;1.80;2.80
34135;DHT22;20410;55.578;12.968;2023-03-01T07:01:46;1.90;14.40
34135;DHT22;20410;55.578;12.968;2023-03-01T07:04:13;2.10;20.70
34135;DHT22;20410;55.578;12.968;2023-03-01T07:06:39;2.20;25.10
34135;DHT22;20410;55.578;12.968;2023-03-01T07:09:04;2.40;28.60
34135;DHT22;20410;55.578;12.968;2023-03-01T07:11:30;2.40;37.60
34135;DHT22;20410;55.578;12.968;2023-03-01T07:13:56;2.50;43.70
34135;DHT22;20410;55.578;12.968;2023-03-01T07:16:21;2.60;49.30
34135;DHT22;20410;55.578;12.968;2023-03-01T07:18:47;2.50;52.30
34135;DHT22;20410;55.578;12.968;2023-03-01T07:21:14;2.50;47.70
34135;DHT22;20410;55.578;12.968;2023-03-01T07:23:40;2.40;55.90
34135;DHT22;20410;55.578;12.968;2023-03-01T07:26:06;2.40;63.70
34135;DHT22;20410;55.578;12.968;2023-03-01T07:28:32;2.40;74.40
34135;DHT22;20410;55.578;12.968;2023-03-01T07:31:05;2.40;75.80
34135;DHT22;20410;55.578;12.968;2023-03-01T07:33:32;2.40;71.90
34135;DHT22;20410;55.578;12.968;2023-03-01T07:35:59;2.40;79.20
34135;DHT22;20410;55.578;12.968;2023-03-01T07:38:26;2.40;74.40
34135;DHT22;20410;55.578;12.968;2023-03-01T07:40:51;2.50;74.10
34135;DHT22;20410;55.578;12.968;2023-03-01T07:43:17;2.40;69.20
34135;DHT22;20410;55.578;12.968;2023-03-01T07:45:43;2.40;70.00
34135;DHT22;20410;55.578;12.968;2023-03-01T07:48:10;2.40;57.60
34135;DHT22;20410;55.578;12.968;2023-03-01T07:50:35;2.40;57.90
34135;DHT22;20410;55.578;12.968;2023-03-01T07:53:01;2.30;48.30
34135;DHT22;20410;55.578;12.968;2023-03-01T07:55:27;2.30;51.40
34135;DHT22;20410;55.578;12.968;2023-03-01T07:57:53;2.30;45.90
34135;DHT22;20410;55.578;12.968;2023-03-01T08:00:19;2.30;46.10
34135;DHT22;20410;55.578;12.968;2023-03-01T08:02:45;2.30;41.30
34135;DHT22;20410;55.578;12.968;2023-03-01T08:05:11;2.20;41.00
34135;DHT22;20410;55.578;12.968;2023-03-01T08:07:37;2.20;43.60
34135;DHT22;20410;55.578;12.968;2023-03-01T08:10:03;2.20;43.20
34135;DHT22;20410;55.578;12.968;2023-03-01T08:12:29;2.30;51.30
34135;DHT22;20410;55.578;12.968;2023-03-01T08:14:54;2.30;54.90
34135;DHT22;20410;55.578;12.968;2023-03-01T08:17:20;2.30;55.90
34135;DHT22;20410;55.578;12.968;2023-03-01T08:19:46;2.40;54.20
34135;DHT22;20410;55.578;12.968;2023-03-01T08:22:12;2.50;56.00
34135;DHT22;20410;55.578;12.968;2023-03-01T08:24:37;2.60;57.70
34135;DHT22;20410;55.578;12.968;2023-03-01T08:27:03;2.60;49.60
34135;DHT22;20410;55.578;12.968;2023-03-01T08:29:31;2.50;39.60
34135;DHT22;20410;55.578;12.968;2023-03-01T08:31:57;2.60;60.90
34135;DHT22;20410;55.578;12.968;2023-03-01T08:34:22;2.70;55.20
34135;DHT22;20410;55.578;12.968;2023-03-01T08:36:48;2.80;55.00
34135;DHT22;20410;55.578;12.968;2023-03-01T08:39:17;2.80;43.90
34135;DHT22;20410;55.578;12.968;2023-03-01T08:41:44;2.80;31.70
34135;DHT22;20410;55.578;12.968;2023-03-01T08:44:12;2.80;28.60
34135;DHT22;20410;55.578;12.968;2023-03-01T08:46:40;2.80;30.20
34135;DHT22;20410;55.578;12.968;2023-03-01T08:49:08;2.80;33.20
34135;DHT22;20410;55.578;12.968;2023-03-01T08:51:34;2.90;38.30
34135;DHT22;20410;55.578;12.968;2023-03-01T08:54:07;2.80;35.60
34135;DHT22;20410;55.578;12.968;2023-03-01T08:56:35;2.90;48.20
34135;DHT22;20410;55.578;12.968;2023-03-01T08:59:01;2.90;54.30
34135;DHT22;20410;55.578;12.968;2023-03-01T09:01:26;3.00;65.70
34135;DHT22;20410;55.578;12.968;2023-03-01T09:03:52;3.10;70.40
34135;DHT22;20410;55.578;12.968;2023-03-01T09:06:18;3.20;62.60
34135;DHT22;20410;55.578;12.968;2023-03-01T09:08:46;3.20;33.90
34135;DHT22;20410;55.578;12.968;2023-03-01T09:11:14;3.20;20.20
34135;DHT22;20410;55.578;12.968;2023-03-01T09:13:41;3.20;25.10
34135;DHT22;20410;55.578;12.968;2023-03-01T09:16:07;3.10;11.40
34135;DHT22;20410;55.578;12.968;2023-03-01T09:18:34;3.10;3.50
34135;DHT22;20410;55.578;12.968;2023-03-01T09:21:15;3.00;3.20
34135;DHT22;20410;55.578;12.968;2023-03-01T09:23:45;3.00;3.20
34135;DHT22;20410;55.578;12.968;2023-03-01T09:26:21;3.10;17.00
34135;DHT22;20410;55.578;12.968;2023-03-01T09:28:49;3.10;15.70
34135;DHT22;20410;55.578;12.968;2023-03-01T09:31:15;3.10;1.00
34135;DHT22;20410;55.578;12.968;2023-03-01T09:33:42;3.10;1.00
34135;DHT22;20410;55.578;12.968;2023-03-01T09:36:13;3.10;1.00
34135;DHT22;20410;55.578;12.968;2023-03-01T09:38:38;3.10;8.80
34135;DHT22;20410;55.578;12.968;2023-03-01T09:41:14;3.20;10.60
34135;DHT22;20410;55.578;12.968;2023-03-01T09:44:47;3.20;2.60
34135;DHT22;20410;55.578;12.968;2023-03-01T09:46:43;3.20;1.00
34135;DHT22;20410;55.578;12.968;2023-03-01T09:49:18;3.10;1.00
34135;DHT22;20410;55.578;12.968;2023-03-01T09:54:23;3.30;3.60
34135;DHT22;20410;55.578;12.968;2023-03-01T10:00:19;3.60;1.00
34135;DHT22;20410;55.578;12.968;2023-03-01T10:05:34;3.70;1.00
34135;DHT22;20410;55.578;12.968;2023-03-01T10:08:27;3.70;1.00
34135;DHT22;20410;55.578;12.968;2023-03-01T10:10:57;3.70;1.00
34135;DHT22;20410;55.578;12.968;2023-03-01T10:16:13;3.90;1.00
34135;DHT22;20410;55.578;12.968;2023-03-01T10:18:41;3.90;1.00
34135;DHT22;20410;55.578;12.968;2023-03-01T10:21:17;3.90;1.00
34135;DHT22;20410;55.578;12.968;2023-03-01T10:23:43;4.00;1.00
34135;DHT22;20410;55.578;12.968;2023-03-01T10:29:10;4.20;1.00
34135;DHT22;20410;55.578;12.968;2023-03-01T10:31:43;4.30;1.00
34135;DHT22;20410;55.578;12.968;2023-03-01T10:34:19;4.20;1.00
34135;DHT22;20410;55.578;12.968;2023-03-01T10:36:51;4.20;1.00
34135;DHT22;20410;55.578;12.968;2023-03-01T10:39:20;4.30;1.00
34135;DHT22;20410;55.578;12.968;2023-03-01T10:44:48;4.50;1.00
34135;DHT22;20410;55.578;12.968;2023-03-01T10:47:17;4.60;1.00
34135;DHT22;20410;55.578;12.968;2023-03-01T10:52:34;4.80;1.00
34135;DHT22;20410;55.578;12.968;2023-03-01T10:57:46;4.90;1.00
34135;DHT22;20410;55.578;12.968;2023-03-01T11:00:25;4.80;1.00
34135;DHT22;20410;55.578;12.968;2023-03-01T11:03:04;4.80;1.00
34135;DHT22;20410;55.578;12.968;2023-03-01T11:05:35;4.80;1.00
34135;DHT22;20410;55.578;12.968;2023-03-01T11:08:02;4.80;1.00
34135;DHT22;20410;55.578;12.968;2023-03-01T11:10:29;4.80;1.00
34135;DHT22;20410;55.578;12.968;2023-03-01T11:13:15;4.60;1.00
34135;DHT22;20410;55.578;12.968;2023-03-01T11:15:42;4.70;1.00
34135;DHT22;20410;55.578;12.968;2023-03-01T11:18:26;4.60;1.00
34135;DHT22;20410;55.578;12.968;2023-03-01T11:20:53;4.50;1.00
34135;DHT22;20410;55.578;12.968;2023-03-01T11:23:20;4.50;1.00
34135;DHT22;20410;55.578;12.968;2023-03-01T11:26:07;4.40;1.00
34135;DHT22;20410;55.578;12.968;2023-03-01T11:28:38;4.30;1.00
34135;DHT22;20410;55.578;12.968;2023-03-01T11:31:07;4.30;1.00
34135;DHT22;20410;55.578;12.968;2023-03-01T11:38:34;4.50;1.00
34135;DHT22;20410;55.578;12.968;2023-03-01T11:41:17;4.50;1.00
34135;DHT22;20410;55.578;12.968;2023-03-01T11:43:59;4.50;1.00
34135;DHT22;20410;55.578;12.968;2023-03-01T11:49:37;4.60;1.00
34135;DHT22;20410;55.578;12.968;2023-03-01T12:00:51;5.00;1.00
34135;DHT22;20410;55.578;12.968;2023-03-01T12:09:35;5.30;1.00
34135;DHT22;20410;55.578;12.968;2023-03-01T12:12:24;5.40;1.00
34135;DHT22;20410;55.578;12.968;2023-03-01T12:15:26;5.50;1.00
34135;DHT22;20410;55.578;12.968;2023-03-01T12:26:20;5.70;1.00
34135;DHT22;20410;55.578;12.968;2023-03-01T12:46:07;6.10;1.00
34135;DHT22;20410;55.578;12.968;2023-03-01T12:51:21;6.00;1.00
34135;DHT22;20410;55.578;12.968;2023-03-01T12:53:50;5.90;1.00
34135;DHT22;20410;55.578;12.968;2023-03-01T12:56:28;5.90;1.00
34135;DHT22;20410;55.578;12.968;2023-03-01T12:59:04;6.10;1.00
34135;DHT22;20410;55.578;12.968;2023-03-01T13:11:58;6.10;1.00
34135;DHT22;20410;55.578;12.968;2023-03-01T13:16:53;6.30;1.00
34135;DHT22;20410;55.578;12.968;2023-03-01T13:19:28;6.40;1.00
34135;DHT22;20410;55.578;12.968;2023-03-01T13:22:31;6.50;1.00
34135;DHT22;20410;55.578;12.968;2023-03-01T13:25:13;6.50;1.00
34135;DHT22;20410;55.578;12.968;2023-03-01T13:27:39;6.50;1.00
34135;DHT22;20410;55.578;12.968;2023-03-01T13:30:38;6.50;1.00
34135;DHT22;20410;55.578;12.968;2023-03-01T13:36:06;6.70;1.00
34135;DHT22;20410;55.578;12.968;2023-03-01T13:38:48;6.70;1.00
34135;DHT22;20410;55.578;12.968;2023-03-01T13:46:44;6.70;1.00
34135;DHT22;20410;55.578;12.968;2023-03-01T13:49:16;6.70;1.00
34135;DHT22;20410;55.578;12.968;2023-03-01T13:51:42;6.80;1.00
34135;DHT22;20410;55.578;12.968;2023-03-01T13:54:12;6.90;1.00
34135;DHT22;20410;55.578;12.968;2023-03-01T13:56:40;6.90;1.00
34135;DHT22;20410;55.578;12.968;2023-03-01T13:59:20;6.90;1.00
34135;DHT22;20410;55.578;12.968;2023-03-01T14:01:56;6.90;1.00
34135;DHT22;20410;55.578;12.968;2023-03-01T14:04:30;6.90;1.00
34135;DHT22;20410;55.578;12.968;2023-03-01T14:07:19;6.80;1.00
34135;DHT22;20410;55.578;12.968;2023-03-01T14:09:50;6.90;1.00
34135;DHT22;20410;55.578;12.968;2023-03-01T14:12:43;6.90;1.00
34135;DHT22;20410;55.578;12.968;2023-03-01T14:15:25;6.90;1.00
34135;DHT22;20410;55.578;12.968;2023-03-01T14:20:39;6.90;1.00
34135;DHT22;20410;55.578;12.968;2023-03-01T14:23:13;6.80;1.00
34135;DHT22;20410;55.578;12.968;2023-03-01T14:25:50;6.80;1.00
34135;DHT22;20410;55.578;12.968;2023-03-01T14:28:45;6.80;1.00
34135;DHT22;20410;55.578;12.968;2023-03-01T14:31:32;6.80;1.00
34135;DHT22;20410;55.578;12.968;2023-03-01T14:33:59;6.80;1.00
34135;DHT22;20410;55.578;12.968;2023-03-01T14:36:30;6.90;1.00
34135;DHT22;20410;55.578;12.968;2023-03-01T14:38:57;6.80;1.00
34135;DHT22;20410;55.578;12.968;2023-03-01T14:41:33;6.70;1.00
34135;DHT22;20410;55.578;12.968;2023-03-01T14:44:02;6.70;1.00
34135;DHT22;20410;55.578;12.968;2023-03-01T14:46:37;6.60;1.00
34135;DHT22;20410;55.578;12.968;2023-03-01T14:49:11;6.70;1.00
34135;DHT22;20410;55.578;12.968;2023-03-01T14:51:45;6.70;1.00
34135;DHT22;20410;55.578;12.968;2023-03-01T14:56:46;6.60;1.00
34135;DHT22;20410;55.578;12.968;2023-03-01T14:59:12;6.60;1.00
34135;DHT22;20410;55.578;12.968;2023-03-01T15:01:40;6.60;1.00
34135;DHT22;20410;55.578;12.968;2023-03-01T15:04:10;6.60;1.00
34135;DHT22;20410;55.578;12.968;2023-03-01T15:06:36;6.60;1.00
34135;DHT22;20410;55.578;12.968;2023-03-01T15:09:03;6.40;1.00
34135;DHT22;20410;55.578;12.968;2023-03-01T15:11:31;6.50;1.00
34135;DHT22;20410;55.578;12.968;2023-03-01T15:13:58;6.50;1.00
34135;DHT22;20410;55.578;12.968;2023-03-01T15:16:25;6.40;1.00
34135;DHT22;20410;55.578;12.968;2023-03-01T15:18:54;6.40;1.00
34135;DHT22;20410;55.578;12.968;2023-03-01T15:21:23;6.30;1.00
34135;DHT22;20410;55.578;12.968;2023-03-01T15:23:55;6.30;1.00
34135;DHT22;20410;55.578;12.968;2023-03-01T15:26:29;6.30;1.00
34135;DHT22;20410;55.578;12.968;2023-03-01T15:28:58;6.30;1.00
34135;DHT22;20410;55.578;12.968;2023-03-01T15:31:27;6.30;1.00
34135;DHT22;20410;55.578;12.968;2023-03-01T15:34:19;6.20;1.00
34135;DHT22;20410;55.578;12.968;2023-03-01T15:36:47;6.20;1.00
34135;DHT22;20410;55.578;12.968;2023-03-01T15:41:53;6.20;1.00
34135;DHT22;20410;55.578;12.968;2023-03-01T15:44:35;6.20;1.00
34135;DHT22;20410;55.578;12.968;2023-03-01T15:47:20;6.20;1.00
34135;DHT22;20410;55.578;12.968;2023-03-01T15:49:47;6.20;1.00
34135;DHT22;20410;55.578;12.968;2023-03-01T15:52:29;6.10;1.00
34135;DHT22;20410;55.578;12.968;2023-03-01T15:54:59;6.00;1.00
34135;DHT22;20410;55.578;12.968;2023-03-01T15:57:25;6.00;1.00
34135;DHT22;20410;55.578;12.968;2023-03-01T15:59:51;6.00;1.00
34135;DHT22;20410;55.578;12.968;2023-03-01T16:02:17;6.00;1.00
34135;DHT22;20410;55.578;12.968;2023-03-01T16:04:42;5.90;1.00
34135;DHT22;20410;55.578;12.968;2023-03-01T16:07:08;5.80;1.00
34135;DHT22;20410;55.578;12.968;2023-03-01T16:09:35;5.90;1.00
34135;DHT22;20410;55.578;12.968;2023-03-01T16:12:01;5.90;1.00
34135;DHT22;20410;55.578;12.968;2023-03-01T16:14:27;5.80;1.00
34135;DHT22;20410;55.578;12.968;2023-03-01T16:16:53;5.80;1.00
34135;DHT22;20410;55.578;12.968;2023-03-01T16:19:18;5.80;1.00
34135;DHT22;20410;55.578;12.968;2023-03-01T16:21:44;5.70;1.00
34135;DHT22;20410;55.578;12.968;2023-03-01T16:24:12;5.70;1.00
34135;DHT22;20410;55.578;12.968;2023-03-01T16:26:38;5.60;1.00
34135;DHT22;20410;55.578;12.968;2023-03-01T16:29:04;5.50;1.00
34135;DHT22;20410;55.578;12.968;2023-03-01T16:31:29;5.50;1.00
34135;DHT22;20410;55.578;12.968;2023-03-01T16:33:56;5.40;1.00
34135;DHT22;20410;55.578;12.968;2023-03-01T16:36:24;5.40;1.00
34135;DHT22;20410;55.578;12.968;2023-03-01T16:38:51;5.30;1.00
34135;DHT22;20410;55.578;12.968;2023-03-01T16:41:19;5.30;1.00
34135;DHT22;20410;55.578;12.968;2023-03-01T16:43:45;5.30;1.00
34135;DHT22;20410;55.578;12.968;2023-03-01T16:46:23;5.30;1.00
34135;DHT22;20410;55.578;12.968;2023-03-01T16:48:50;5.20;1.00
34135;DHT22;20410;55.578;12.968;2023-03-01T16:51:16;5.10;1.00
34135;DHT22;20410;55.578;12.968;2023-03-01T16:53:42;5.10;1.00
34135;DHT22;20410;55.578;12.968;2023-03-01T16:56:10;5.10;1.00
34135;DHT22;20410;55.578;12.968;2023-03-01T16:58:37;5.10;1.00
34135;DHT22;20410;55.578;12.968;2023-03-01T17:03:31;4.90;1.00
34135;DHT22;20410;55.578;12.968;2023-03-01T17:05:56;4.90;1.00
34135;DHT22;20410;55.578;12.968;2023-03-01T17:08:22;4.90;1.00
34135;DHT22;20410;55.578;12.968;2023-03-01T17:10:47;4.90;1.00
34135;DHT22;20410;55.578;12.968;2023-03-01T17:13:13;4.90;1.00
34135;DHT22;20410;55.578;12.968;2023-03-01T17:15:40;4.80;1.00
34135;DHT22;20410;55.578;12.968;2023-03-01T17:18:06;4.80;1.00
34135;DHT22;20410;55.578;12.968;2023-03-01T17:20:32;4.80;1.00
34135;DHT22;20410;55.578;12.968;2023-03-01T17:22:59;4.80;1.00
34135;DHT22;20410;55.578;12.968;2023-03-01T17:25:24;4.70;1.00
34135;DHT22;20410;55.578;12.968;2023-03-01T17:27:50;4.60;1.00
34135;DHT22;20410;55.578;12.968;2023-03-01T17:30:16;4.70;1.00
34135;DHT22;20410;55.578;12.968;2023-03-01T17:32:42;4.60;1.00
34135;DHT22;20410;55.578;12.968;2023-03-01T17:35:08;4.60;1.00
34135;DHT22;20410;55.578;12.968;2023-03-01T17:37:36;4.60;1.00
34135;DHT22;20410;55.578;12.968;2023-03-01T17:40:05;4.50;1.00
34135;DHT22;20410;55.578;12.968;2023-03-01T17:42:31;4.50;1.00
34135;DHT22;20410;55.578;12.968;2023-03-01T17:44:57;4.50;1.00
34135;DHT22;20410;55.578;12.968;2023-03-01T17:47:23;4.50;1.00
34135;DHT22;20410;55.578;12.968;2023-03-01T17:49:49;4.40;1.00
34135;DHT22;20410;55.578;12.968;2023-03-01T17:52:15;4.40;1.00